sensor_id;sensor_type;location;lat;lon;timestamp;pressure;altitude;pressure_sealevel;temperature;humidity
40155;BME280;25875;48.202;16.334;2023-09-12T11:59:05;98751.59;;;27.39;49.87
40155;BME280;25875;48.202;16.334;2023-09-12T12:01:32;98756.84;;;27.40;50.08
40155;BME280;25875;48.202;16.334;2023-09-12T12:03:59;98727.09;;;27.26;46.86
40155;BME280;25875;48.202;16.334;2023-09-12T12:06:26;98724.13;;;27.21;46.13
40155;BME280;25875;48.202;16.334;2023-09-12T12:08:55;98749.72;;;27.53;45.58
40155;BME280;25875;48.202;16.334;2023-09-12T12:11:21;98750.56;;;27.46;46.06
40155;BME280;25875;48.202;16.334;2023-09-12T12:13:48;98744.69;;;27.36;47.09
40155;BME280;25875;48.202;16.334;2023-09-12T12:16:18;98715.59;;;27.24;47.52
40155;BME280;25875;48.202;16.334;2023-09-12T12:18:45;98737.59;;;27.42;45.55
40155;BME280;25875;48.202;16.334;2023-09-12T12:21:12;98710.78;;;27.32;48.66
40155;BME280;25875;48.202;16.334;2023-09-12T12:23:39;98726.72;;;27.55;48.25
40155;BME280;25875;48.202;16.334;2023-09-12T12:26:07;98729.47;;;27.62;47.38
40155;BME280;25875;48.202;16.334;2023-09-12T12:28:38;98590.00;;;26.87;42.64
40155;BME280;25875;48.202;16.334;2023-09-12T12:31:05;98767.38;;;27.70;44.60
40155;BME280;25875;48.202;16.334;2023-09-12T12:33:33;98723.19;;;27.74;42.88
40155;BME280;25875;48.202;16.334;2023-09-12T12:36:00;98707.28;;;27.65;44.53
40155;BME280;25875;48.202;16.334;2023-09-12T12:38:32;98724.25;;;27.93;41.40
40155;BME280;25875;48.202;16.334;2023-09-12T12:40:59;98728.84;;;27.99;41.90
40155;BME280;25875;48.202;16.334;2023-09-12T12:43:26;98723.84;;;27.90;44.77
40155;BME280;25875;48.202;16.334;2023-09-12T12:45:53;98721.31;;;27.88;46.66
40155;BME280;25875;48.202;16.334;2023-09-12T12:48:29;98719.84;;;27.92;44.06
40155;BME280;25875;48.202;16.334;2023-09-12T12:50:58;98715.88;;;27.95;45.15
40155;BME280;25875;48.202;16.334;2023-09-12T12:53:38;98700.78;;;27.92;46.05
40155;BME280;25875;48.202;16.334;2023-09-12T12:56:05;98702.88;;;27.97;46.41
40155;BME280;25875;48.202;16.334;2023-09-12T12:58:33;98707.91;;;27.93;46.37
40155;BME280;25875;48.202;16.334;2023-09-12T13:01:00;98712.09;;;28.02;43.42
40155;BME280;25875;48.202;16.334;2023-09-12T13:03:27;98716.25;;;28.11;43.93
40155;BME280;25875;48.202;16.334;2023-09-12T13:05:55;98709.56;;;28.07;43.24
40155;BME280;25875;48.202;16.334;2023-09-12T13:08:24;98683.19;;;27.88;44.67
40155;BME280;25875;48.202;16.334;2023-09-12T13:10:51;98707.66;;;28.15;42.98
40155;BME280;25875;48.202;16.334;2023-09-12T13:13:19;98702.44;;;28.06;43.84
40155;BME280;25875;48.202;16.334;2023-09-12T13:15:48;98655.56;;;27.71;44.86
40155;BME280;25875;48.202;16.334;2023-09-12T13:18:15;98702.44;;;28.13;43.36
40155;BME280;25875;48.202;16.334;2023-09-12T13:20:41;98708.47;;;28.22;42.23
40155;BME280;25875;48.202;16.334;2023-09-12T13:23:08;98655.56;;;27.91;42.59
40155;BME280;25875;48.202;16.334;2023-09-12T13:25:38;98697.78;;;28.27;41.92
40155;BME280;25875;48.202;16.334;2023-09-12T13:28:05;98693.59;;;28.31;41.76
40155;BME280;25875;48.202;16.334;2023-09-12T13:30:32;98700.94;;;28.24;42.87
40155;BME280;25875;48.202;16.334;2023-09-12T13:32:59;98659.53;;;27.95;43.92
40155;BME280;25875;48.202;16.334;2023-09-12T13:35:25;98689.19;;;28.23;43.20
40155;BME280;25875;48.202;16.334;2023-09-12T13:37:52;98682.09;;;28.16;44.00
40155;BME280;25875;48.202;16.334;2023-09-12T13:40:19;98696.34;;;28.18;43.58
40155;BME280;25875;48.202;16.334;2023-09-12T13:42:48;98693.81;;;28.23;42.67
40155;BME280;25875;48.202;16.334;2023-09-12T13:45:15;98694.03;;;28.21;43.87
40155;BME280;25875;48.202;16.334;2023-09-12T13:47:41;98682.72;;;28.18;43.41
40155;BME280;25875;48.202;16.334;2023-09-12T13:50:09;98683.56;;;28.18;44.54
40155;BME280;25875;48.202;16.334;2023-09-12T13:52:35;98682.06;;;28.29;41.43
40155;BME280;25875;48.202;16.334;2023-09-12T13:55:03;98682.03;;;28.35;41.44
40155;BME280;25875;48.202;16.334;2023-09-12T13:57:30;98688.94;;;28.44;42.80
40155;BME280;25875;48.202;16.334;2023-09-12T13:59:59;98678.06;;;28.44;41.72
40155;BME280;25875;48.202;16.334;2023-09-12T14:02:26;98684.34;;;28.38;42.31
40155;BME280;25875;48.202;16.334;2023-09-12T14:04:53;98686.00;;;28.46;40.87
40155;BME280;25875;48.202;16.334;2023-09-12T14:07:21;98684.56;;;28.43;43.35
40155;BME280;25875;48.202;16.334;2023-09-12T14:09:48;98625.09;;;28.14;43.68
40155;BME280;25875;48.202;16.334;2023-09-12T14:12:17;98676.16;;;28.38;46.23
40155;BME280;25875;48.202;16.334;2023-09-12T14:14:44;98676.38;;;28.37;44.60
40155;BME280;25875;48.202;16.334;2023-09-12T14:17:15;98678.25;;;28.36;44.41
40155;BME280;25875;48.202;16.334;2023-09-12T14:19:43;98628.72;;;27.95;44.51
40155;BME280;25875;48.202;16.334;2023-09-12T14:22:14;98680.16;;;28.29;45.45
40155;BME280;25875;48.202;16.334;2023-09-12T14:24:40;98682.03;;;28.35;41.28
40155;BME280;25875;48.202;16.334;2023-09-12T14:27:08;98685.59;;;28.42;41.63
40155;BME280;25875;48.202;16.334;2023-09-12T14:29:36;98682.44;;;28.46;40.48
40155;BME280;25875;48.202;16.334;2023-09-12T14:32:05;98684.34;;;28.45;41.21
40155;BME280;25875;48.202;16.334;2023-09-12T14:34:34;98659.63;;;28.27;41.05
40155;BME280;25875;48.202;16.334;2023-09-12T14:37:03;98680.78;;;28.38;42.05
40155;BME280;25875;48.202;16.334;2023-09-12T14:39:31;98681.41;;;28.33;42.13
40155;BME280;25875;48.202;16.334;2023-09-12T14:41:59;98685.63;;;28.29;43.07
40155;BME280;25875;48.202;16.334;2023-09-12T14:44:27;98687.06;;;28.32;42.46
40155;BME280;25875;48.202;16.334;2023-09-12T14:46:59;98685.63;;;28.29;41.52
40155;BME280;25875;48.202;16.334;2023-09-12T14:49:28;98681.84;;;28.30;41.79
40155;BME280;25875;48.202;16.334;2023-09-12T14:51:59;98675.16;;;28.26;41.75
40155;BME280;25875;48.202;16.334;2023-09-12T14:54:28;98678.72;;;28.20;41.05
40155;BME280;25875;48.202;16.334;2023-09-12T14:56:55;98683.13;;;28.21;41.94
40155;BME280;25875;48.202;16.334;2023-09-12T14:59:24;98684.41;;;28.19;43.09
40155;BME280;25875;48.202;16.334;2023-09-12T15:01:51;98684.81;;;28.16;44.04
40155;BME280;25875;48.202;16.334;2023-09-12T15:04:19;98688.59;;;28.15;43.72
40155;BME280;25875;48.202;16.334;2023-09-12T15:06:46;98685.47;;;28.11;42.74
40155;BME280;25875;48.202;16.334;2023-09-12T15:09:16;98690.28;;;28.09;44.00
40155;BME280;25875;48.202;16.334;2023-09-12T15:11:43;98685.06;;;28.07;44.80
40155;BME280;25875;48.202;16.334;2023-09-12T15:14:10;98687.56;;;28.02;42.62
40155;BME280;25875;48.202;16.334;2023-09-12T15:16:37;98539.59;;;27.17;43.63
40155;BME280;25875;48.202;16.334;2023-09-12T15:19:05;98681.06;;;28.03;42.92
40155;BME280;25875;48.202;16.334;2023-09-12T15:21:32;98680.47;;;28.01;42.38
40155;BME280;25875;48.202;16.334;2023-09-12T15:24:02;98684.44;;;27.99;42.26
40155;BME280;25875;48.202;16.334;2023-09-12T15:26:31;98622.88;;;27.58;41.49
40155;BME280;25875;48.202;16.334;2023-09-12T15:28:59;98683.38;;;28.00;41.48
40155;BME280;25875;48.202;16.334;2023-09-12T15:31:26;98686.31;;;27.98;41.75
40155;BME280;25875;48.202;16.334;2023-09-12T15:33:54;98683.38;;;28.00;40.58
40155;BME280;25875;48.202;16.334;2023-09-12T15:36:23;98676.47;;;27.97;41.39
40155;BME280;25875;48.202;16.334;2023-09-12T15:38:51;98682.97;;;27.96;42.21
40155;BME280;25875;48.202;16.334;2023-09-12T15:41:18;98676.91;;;27.94;42.38
40155;BME280;25875;48.202;16.334;2023-09-12T15:43:48;98682.78;;;27.91;41.33
40155;BME280;25875;48.202;16.334;2023-09-12T15:46:16;98673.16;;;27.89;41.82
40155;BME280;25875;48.202;16.334;2023-09-12T15:48:43;98672.31;;;27.88;43.08
40155;BME280;25875;48.202;16.334;2023-09-12T15:51:11;98677.13;;;27.86;43.29
40155;BME280;25875;48.202;16.334;2023-09-12T15:53:39;98672.94;;;27.84;43.62
40155;BME280;25875;48.202;16.334;2023-09-12T15:56:07;98675.22;;;27.80;44.37
40155;BME280;25875;48.202;16.334;2023-09-12T15:58:34;98667.25;;;27.78;44.05
40155;BME280;25875;48.202;16.334;2023-09-12T16:01:02;98672.28;;;27.75;43.19
40155;BME280;25875;48.202;16.334;2023-09-12T16:03:30;98588.13;;;27.14;42.95
40155;BME280;25875;48.202;16.334;2023-09-12T16:05:57;98675.22;;;27.73;43.38
40155;BME280;25875;48.202;16.334;2023-09-12T16:08:24;98679.84;;;27.73;43.40
40155;BME280;25875;48.202;16.334;2023-09-12T16:10:52;98668.75;;;27.68;43.60
40155;BME280;25875;48.202;16.334;2023-09-12T16:13:20;98674.41;;;27.66;44.14
40155;BME280;25875;48.202;16.334;2023-09-12T16:15:48;98676.50;;;27.64;43.78
40155;BME280;25875;48.202;16.334;2023-09-12T16:18:18;98641.72;;;27.40;43.40
40155;BME280;25875;48.202;16.334;2023-09-12T16:20:46;98678.81;;;27.61;43.67
40155;BME280;25875;48.202;16.334;2023-09-12T16:23:13;98677.50;;;27.57;43.30
40155;BME280;25875;48.202;16.334;2023-09-12T16:25:40;98669.34;;;27.57;44.17
40155;BME280;25875;48.202;16.334;2023-09-12T16:28:08;98671.66;;;27.53;44.35
40155;BME280;25875;48.202;16.334;2023-09-12T16:30:37;98678.97;;;27.53;44.38
40155;BME280;25875;48.202;16.334;2023-09-12T16:33:05;98678.97;;;27.53;44.51
40155;BME280;25875;48.202;16.334;2023-09-12T16:35:34;98676.69;;;27.49;46.06
40155;BME280;25875;48.202;16.334;2023-09-12T16:38:02;98676.25;;;27.46;44.76
40155;BME280;25875;48.202;16.334;2023-09-12T16:40:29;98680.44;;;27.42;44.43
40155;BME280;25875;48.202;16.334;2023-09-12T16:42:58;98672.50;;;27.40;44.74
40155;BME280;25875;48.202;16.334;2023-09-12T16:45:25;98679.59;;;27.41;45.25
40155;BME280;25875;48.202;16.334;2023-09-12T16:47:54;98680.03;;;27.38;45.35
40155;BME280;25875;48.202;16.334;2023-09-12T16:50:20;98675.63;;;27.37;45.58
40155;BME280;25875;48.202;16.334;2023-09-12T16:52:51;98677.50;;;27.37;45.53
40155;BME280;25875;48.202;16.334;2023-09-12T16:55:20;98681.47;;;27.34;45.52
40155;BME280;25875;48.202;16.334;2023-09-12T16:57:47;98677.31;;;27.32;45.88
40155;BME280;25875;48.202;16.334;2023-09-12T17:00:16;98672.25;;;27.22;44.62
40155;BME280;25875;48.202;16.334;2023-09-12T17:02:43;98678.13;;;27.26;46.50
40155;BME280;25875;48.202;16.334;2023-09-12T17:05:13;98672.06;;;27.24;44.87
40155;BME280;25875;48.202;16.334;2023-09-12T17:07:43;98670.78;;;27.19;44.49
40155;BME280;25875;48.202;16.334;2023-09-12T17:10:13;98619.88;;;26.80;43.78
40155;BME280;25875;48.202;16.334;2023-09-12T17:12:41;98665.53;;;27.11;44.00
40155;BME280;25875;48.202;16.334;2023-09-12T17:15:11;98682.47;;;27.13;44.72
40155;BME280;25875;48.202;16.334;2023-09-12T17:17:40;98676.84;;;27.15;45.23
40155;BME280;25875;48.202;16.334;2023-09-12T17:20:08;98680.59;;;27.07;45.19
40155;BME280;25875;48.202;16.334;2023-09-12T17:22:35;98681.84;;;27.11;44.76
40155;BME280;25875;48.202;16.334;2023-09-12T17:25:04;98678.91;;;27.06;44.94
40155;BME280;25875;48.202;16.334;2023-09-12T17:27:34;98682.25;;;27.02;44.68
40155;BME280;25875;48.202;16.334;2023-09-12T17:30:03;98679.31;;;27.03;45.26
40155;BME280;25875;48.202;16.334;2023-09-12T17:32:33;98678.91;;;27.00;46.17
40155;BME280;25875;48.202;16.334;2023-09-12T17:35:01;98678.47;;;27.03;47.46
40155;BME280;25875;48.202;16.334;2023-09-12T17:37:30;98678.47;;;26.96;44.94
40155;BME280;25875;48.202;16.334;2023-09-12T17:39:58;98677.00;;;26.94;44.75
40155;BME280;25875;48.202;16.334;2023-09-12T17:42:27;98678.03;;;26.86;44.86
40155;BME280;25875;48.202;16.334;2023-09-12T17:44:59;98684.31;;;26.93;47.15
40155;BME280;25875;48.202;16.334;2023-09-12T17:47:27;98683.47;;;26.86;46.11
40155;BME280;25875;48.202;16.334;2023-09-12T17:49:57;98696.63;;;26.82;46.99
40155;BME280;25875;48.202;16.334;2023-09-12T17:52:26;98685.75;;;26.82;46.27
40155;BME280;25875;48.202;16.334;2023-09-12T17:54:55;98682.59;;;26.79;45.59
40155;BME280;25875;48.202;16.334;2023-09-12T17:57:23;98632.28;;;26.42;46.03
40155;BME280;25875;48.202;16.334;2023-09-12T17:59:49;98691.59;;;26.73;46.15
40155;BME280;25875;48.202;16.334;2023-09-12T18:02:22;98686.97;;;26.73;47.59
40155;BME280;25875;48.202;16.334;2023-09-12T18:04:53;98697.03;;;26.79;47.18
40155;BME280;25875;48.202;16.334;2023-09-12T18:07:21;98687.81;;;26.74;46.70
40155;BME280;25875;48.202;16.334;2023-09-12T18:09:51;98697.66;;;26.75;49.43
40155;BME280;25875;48.202;16.334;2023-09-12T18:12:20;98667.66;;;26.55;48.10
40155;BME280;25875;48.202;16.334;2023-09-12T18:14:48;98702.78;;;26.57;44.85
40155;BME280;25875;48.202;16.334;2023-09-12T18:17:18;98699.03;;;26.58;48.12
40155;BME280;25875;48.202;16.334;2023-09-12T18:19:47;98697.53;;;26.55;47.16
40155;BME280;25875;48.202;16.334;2023-09-12T18:22:16;98704.44;;;26.58;48.16
40155;BME280;25875;48.202;16.334;2023-09-12T18:24:44;98703.81;;;26.55;47.93
40155;BME280;25875;48.202;16.334;2023-09-12T18:27:12;98673.44;;;26.39;49.91
40155;BME280;25875;48.202;16.334;2023-09-12T18:29:41;98706.97;;;26.59;50.46
40155;BME280;25875;48.202;16.334;2023-09-12T18:32:11;98705.28;;;26.58;50.91
40155;BME280;25875;48.202;16.334;2023-09-12T18:34:39;98706.91;;;26.46;47.55
40155;BME280;25875;48.202;16.334;2023-09-12T18:37:09;98711.53;;;26.52;50.19
40155;BME280;25875;48.202;16.334;2023-09-12T18:39:42;98705.91;;;26.53;50.07
40155;BME280;25875;48.202;16.334;2023-09-12T18:42:11;98706.31;;;26.50;51.17
40155;BME280;25875;48.202;16.334;2023-09-12T18:44:38;98715.09;;;26.52;52.00
40155;BME280;25875;48.202;16.334;2023-09-12T18:47:07;98714.66;;;26.49;52.42
40155;BME280;25875;48.202;16.334;2023-09-12T18:49:41;98708.38;;;26.48;52.83
40155;BME280;25875;48.202;16.334;2023-09-12T18:52:11;98712.34;;;26.46;52.74
40155;BME280;25875;48.202;16.334;2023-09-12T18:54:39;98703.97;;;26.41;52.25
40155;BME280;25875;48.202;16.334;2023-09-12T18:57:09;98715.44;;;26.36;51.49
40155;BME280;25875;48.202;16.334;2023-09-12T18:59:40;98706.25;;;26.37;52.84
40155;BME280;25875;48.202;16.334;2023-09-12T19:02:12;98708.94;;;26.31;52.12
40155;BME280;25875;48.202;16.334;2023-09-12T19:04:42;98709.53;;;26.26;53.37
40155;BME280;25875;48.202;16.334;2023-09-12T19:07:11;98704.25;;;26.18;52.64
40155;BME280;25875;48.202;16.334;2023-09-12T19:09:45;98709.94;;;26.23;53.13
40155;BME280;25875;48.202;16.334;2023-09-12T19:12:24;98723.50;;;26.23;52.76
40155;BME280;25875;48.202;16.334;2023-09-12T19:14:55;98729.78;;;26.23;54.03
40155;BME280;25875;48.202;16.334;2023-09-12T19:17:23;98734.56;;;26.21;53.73
40155;BME280;25875;48.202;16.334;2023-09-12T19:19:56;98377.97;;;24.00;53.92
40155;BME280;25875;48.202;16.334;2023-09-12T19:22:34;98730.78;;;26.16;53.78
40155;BME280;25875;48.202;16.334;2023-09-12T19:25:04;98695.81;;;25.78;53.37
40155;BME280;25875;48.202;16.334;2023-09-12T19:27:34;98737.41;;;26.07;56.59
40155;BME280;25875;48.202;16.334;2023-09-12T19:30:04;98735.09;;;26.04;56.90
40155;BME280;25875;48.202;16.334;2023-09-12T19:32:38;98738.84;;;26.03;55.17
40155;BME280;25875;48.202;16.334;2023-09-12T19:35:08;98647.78;;;25.44;55.98
40155;BME280;25875;48.202;16.334;2023-09-12T19:37:39;98680.88;;;25.61;55.60
40155;BME280;25875;48.202;16.334;2023-09-12T19:40:09;98739.88;;;25.80;55.53
40155;BME280;25875;48.202;16.334;2023-09-12T19:42:40;98717.69;;;25.70;55.11
40155;BME280;25875;48.202;16.334;2023-09-12T19:45:09;98744.91;;;25.83;55.12
40155;BME280;25875;48.202;16.334;2023-09-12T19:47:37;98736.03;;;25.68;55.31
40155;BME280;25875;48.202;16.334;2023-09-12T19:50:13;98617.13;;;25.01;55.62
40155;BME280;25875;48.202;16.334;2023-09-12T19:52:48;98750.03;;;25.72;55.81
40155;BME280;25875;48.202;16.334;2023-09-12T19:55:15;98749.78;;;25.67;55.93
40155;BME280;25875;48.202;16.334;2023-09-12T19:57:42;98756.66;;;25.63;56.13
40155;BME280;25875;48.202;16.334;2023-09-12T20:00:12;98758.06;;;25.58;56.20
40155;BME280;25875;48.202;16.334;2023-09-12T20:02:42;98733.66;;;25.37;55.69
40155;BME280;25875;48.202;16.334;2023-09-12T20:05:10;98763.44;;;25.52;56.03
40155;BME280;25875;48.202;16.334;2023-09-12T20:07:38;98723.69;;;25.23;56.08
40155;BME280;25875;48.202;16.334;2023-09-12T20:10:08;98739.38;;;25.27;55.95
40155;BME280;25875;48.202;16.334;2023-09-12T20:12:38;98763.13;;;25.40;56.06
40155;BME280;25875;48.202;16.334;2023-09-12T20:15:09;98768.94;;;25.37;55.74
40155;BME280;25875;48.202;16.334;2023-09-12T20:17:36;98735.81;;;25.06;55.35
40155;BME280;25875;48.202;16.334;2023-09-12T20:20:04;98729.94;;;25.02;55.55
40155;BME280;25875;48.202;16.334;2023-09-12T20:22:32;98721.69;;;24.95;55.73
40155;BME280;25875;48.202;16.334;2023-09-12T20:25:00;98651.72;;;24.48;55.20
40155;BME280;25875;48.202;16.334;2023-09-12T20:27:30;98763.66;;;25.14;56.20
40155;BME280;25875;48.202;16.334;2023-09-12T20:29:58;98743.00;;;24.99;55.89
40155;BME280;25875;48.202;16.334;2023-09-12T20:32:27;98772.94;;;25.05;55.91
40155;BME280;25875;48.202;16.334;2023-09-12T20:34:56;98763.13;;;25.04;56.34
40155;BME280;25875;48.202;16.334;2023-09-12T20:37:26;98765.00;;;25.04;55.68
40155;BME280;25875;48.202;16.334;2023-09-12T20:39:55;98664.38;;;24.26;56.28
40155;BME280;25875;48.202;16.334;2023-09-12T20:42:23;98763.19;;;24.96;56.71
40155;BME280;25875;48.202;16.334;2023-09-12T20:44:54;98763.78;;;24.91;55.67
40155;BME280;25875;48.202;16.334;2023-09-12T20:47:22;98755.56;;;24.85;55.98
40155;BME280;25875;48.202;16.334;2023-09-12T20:49:50;98754.91;;;24.83;56.00
40155;BME280;25875;48.202;16.334;2023-09-12T20:52:24;98747.81;;;24.82;56.33
40155;BME280;25875;48.202;16.334;2023-09-12T20:54:52;98754.44;;;24.79;55.66
40155;BME280;25875;48.202;16.334;2023-09-12T20:57:20;98711.97;;;24.50;56.28
40155;BME280;25875;48.202;16.334;2023-09-12T20:59:48;98750.44;;;24.75;56.71
40155;BME280;25875;48.202;16.334;2023-09-12T21:02:16;98753.53;;;24.72;56.40
40155;BME280;25875;48.202;16.334;2023-09-12T21:04:43;98662.34;;;23.99;56.70
40155;BME280;25875;48.202;16.334;2023-09-12T21:07:10;98749.72;;;24.67;56.36
40155;BME280;25875;48.202;16.334;2023-09-12T21:09:37;98712.25;;;24.41;56.73
40155;BME280;25875;48.202;16.334;2023-09-12T21:12:05;98743.06;;;24.54;56.45
40155;BME280;25875;48.202;16.334;2023-09-12T21:14:31;98751.84;;;24.56;57.13
40155;BME280;25875;48.202;16.334;2023-09-12T21:16:59;98744.75;;;24.55;56.93
40155;BME280;25875;48.202;16.334;2023-09-12T21:19:27;98750.34;;;24.54;57.11
40155;BME280;25875;48.202;16.334;2023-09-12T21:21:54;98591.56;;;23.58;56.73
40155;BME280;25875;48.202;16.334;2023-09-12T21:24:21;98743.16;;;24.46;57.19
40155;BME280;25875;48.202;16.334;2023-09-12T21:26:48;98742.97;;;24.48;56.98
40155;BME280;25875;48.202;16.334;2023-09-12T21:29:15;98734.56;;;24.43;56.73
40155;BME280;25875;48.202;16.334;2023-09-12T21:31:43;98683.44;;;24.04;58.07
40155;BME280;25875;48.202;16.334;2023-09-12T21:34:11;98737.00;;;24.38;57.52
40155;BME280;25875;48.202;16.334;2023-09-12T21:36:39;98732.16;;;24.33;57.34
40155;BME280;25875;48.202;16.334;2023-09-12T21:39:06;98730.28;;;24.33;57.62
40155;BME280;25875;48.202;16.334;2023-09-12T21:41:33;98686.59;;;24.07;57.79
40155;BME280;25875;48.202;16.334;2023-09-12T21:44:00;98726.28;;;24.29;57.21
40155;BME280;25875;48.202;16.334;2023-09-12T21:46:27;98727.47;;;24.27;57.98
40155;BME280;25875;48.202;16.334;2023-09-12T21:48:53;98727.47;;;24.27;57.22
40155;BME280;25875;48.202;16.334;2023-09-12T21:51:20;98374.09;;;22.12;57.72
40155;BME280;25875;48.202;16.334;2023-09-12T21:53:48;98579.53;;;23.31;58.20
40155;BME280;25875;48.202;16.334;2023-09-12T21:56:15;98722.53;;;24.16;57.75
40155;BME280;25875;48.202;16.334;2023-09-12T21:58:43;98697.19;;;23.94;57.58
40155;BME280;25875;48.202;16.334;2023-09-12T22:01:10;98724.31;;;24.09;57.42
40155;BME280;25875;48.202;16.334;2023-09-12T22:03:38;98721.59;;;24.09;57.88
40155;BME280;25875;48.202;16.334;2023-09-12T22:06:06;98678.06;;;23.81;58.59
40155;BME280;25875;48.202;16.334;2023-09-12T22:08:32;98723.38;;;24.02;58.13
40155;BME280;25875;48.202;16.334;2023-09-12T22:11:01;98722.91;;;23.98;57.90
40155;BME280;25875;48.202;16.334;2023-09-12T22:13:28;98669.66;;;23.61;58.12
40155;BME280;25875;48.202;16.334;2023-09-12T22:15:56;98727.81;;;23.94;58.40
40155;BME280;25875;48.202;16.334;2023-09-12T22:18:23;98728.19;;;23.91;58.33
40155;BME280;25875;48.202;16.334;2023-09-12T22:20:50;98729.38;;;23.89;58.23
40155;BME280;25875;48.202;16.334;2023-09-12T22:23:17;98730.59;;;23.86;58.38
40155;BME280;25875;48.202;16.334;2023-09-12T22:25:44;98698.66;;;23.67;58.95
40155;BME280;25875;48.202;16.334;2023-09-12T22:28:12;98731.16;;;23.82;58.87
40155;BME280;25875;48.202;16.334;2023-09-12T22:30:40;98730.69;;;23.78;58.86
40155;BME280;25875;48.202;16.334;2023-09-12T22:33:07;98735.63;;;23.75;58.80
40155;BME280;25875;48.202;16.334;2023-09-12T22:35:36;98698.16;;;23.49;58.73
40155;BME280;25875;48.202;16.334;2023-09-12T22:38:03;98738.69;;;23.72;58.52
40155;BME280;25875;48.202;16.334;2023-09-12T22:40:30;98729.06;;;23.69;58.23
40155;BME280;25875;48.202;16.334;2023-09-12T22:42:56;98730.28;;;23.66;58.71
40155;BME280;25875;48.202;16.334;2023-09-12T22:45:24;98718.69;;;23.58;58.78
40155;BME280;25875;48.202;16.334;2023-09-12T22:47:51;98727.94;;;23.63;59.56
40155;BME280;25875;48.202;16.334;2023-09-12T22:50:18;98728.31;;;23.60;59.00
40155;BME280;25875;48.202;16.334;2023-09-12T22:52:45;98684.97;;;23.31;59.28
40155;BME280;25875;48.202;16.334;2023-09-12T22:55:12;98736.97;;;23.56;59.63
40155;BME280;25875;48.202;16.334;2023-09-12T22:57:38;98731.56;;;23.56;58.93
40155;BME280;25875;48.202;16.334;2023-09-12T23:00:06;98733.78;;;23.52;58.64
40155;BME280;25875;48.202;16.334;2023-09-12T23:02:36;98732.09;;;23.51;60.00
40155;BME280;25875;48.202;16.334;2023-09-12T23:05:03;98700.19;;;23.24;59.65
40155;BME280;25875;48.202;16.334;2023-09-12T23:07:30;98730.97;;;23.46;59.82
40155;BME280;25875;48.202;16.334;2023-09-12T23:09:57;98729.09;;;23.46;59.29
40155;BME280;25875;48.202;16.334;2023-09-12T23:12:24;98732.00;;;23.45;59.20
40155;BME280;25875;48.202;16.334;2023-09-12T23:14:50;98730.50;;;23.42;59.49
40155;BME280;25875;48.202;16.334;2023-09-12T23:17:19;98736.91;;;23.41;59.84
40155;BME280;25875;48.202;16.334;2023-09-12T23:19:47;98726.66;;;23.36;59.28
40155;BME280;25875;48.202;16.334;2023-09-12T23:22:14;98722.25;;;23.35;59.20
40155;BME280;25875;48.202;16.334;2023-09-12T23:24:41;98719.25;;;23.30;59.49
40155;BME280;25875;48.202;16.334;2023-09-12T23:27:07;98718.94;;;23.25;59.40
40155;BME280;25875;48.202;16.334;2023-09-12T23:29:34;98726.19;;;23.25;59.61
40155;BME280;25875;48.202;16.334;2023-09-12T23:32:02;98719.47;;;23.21;60.11
40155;BME280;25875;48.202;16.334;2023-09-12T23:34:29;98719.34;;;23.14;60.88
40155;BME280;25875;48.202;16.334;2023-09-12T23:36:58;98727.81;;;23.11;60.39
40155;BME280;25875;48.202;16.334;2023-09-12T23:39:24;98705.06;;;23.05;59.57
40155;BME280;25875;48.202;16.334;2023-09-12T23:41:51;98726.09;;;23.18;59.63
40155;BME280;25875;48.202;16.334;2023-09-12T23:44:19;98729.63;;;23.19;60.54
40155;BME280;25875;48.202;16.334;2023-09-12T23:46:46;98731.50;;;23.18;60.14
40155;BME280;25875;48.202;16.334;2023-09-12T23:49:13;98731.50;;;23.18;61.22
40155;BME280;25875;48.202;16.334;2023-09-12T23:51:40;98736.91;;;23.18;61.16
40155;BME280;25875;48.202;16.334;2023-09-12T23:54:09;98732.88;;;23.14;61.06
40155;BME280;25875;48.202;16.334;2023-09-12T23:56:36;98734.38;;;23.17;61.85
40155;BME280;25875;48.202;16.334;2023-09-12T23:59:05;98729.16;;;23.15;61.91
